sensor_id;sensor_type;location;lat;lon;timestamp;P1;durP1;ratioP1;P2;durP2;ratioP2
69152;SDS011;56261;51.580;4.578;2022-08-26T00:01:21;8.73;;;1.73;;
69152;SDS011;56261;51.580;4.578;2022-08-26T00:03:47;8.93;;;1.40;;
69152;SDS011;56261;51.580;4.578;2022-08-26T00:06:12;7.40;;;1.77;;
69152;SDS011;56261;51.580;4.578;2022-08-26T00:08:38;11.45;;;1.55;;
69152;SDS011;56261;51.580;4.578;2022-08-26T00:11:04;8.43;;;1.60;;
69152;SDS011;56261;51.580;4.578;2022-08-26T00:13:30;7.75;;;1.40;;
69152;SDS011;56261;51.580;4.578;2022-08-26T00:15:56;8.35;;;1.85;;
69152;SDS011;56261;51.580;4.578;2022-08-26T00:18:21;7.70;;;1.40;;
69152;SDS011;56261;51.580;4.578;2022-08-26T00:20:47;9.68;;;1.48;;
69152;SDS011;56261;51.580;4.578;2022-08-26T00:23:13;8.20;;;1.30;;
69152;SDS011;56261;51.580;4.578;2022-08-26T00:25:39;7.10;;;1.33;;
69152;SDS011;56261;51.580;4.578;2022-08-26T00:28:05;8.80;;;1.50;;
69152;SDS011;56261;51.580;4.578;2022-08-26T00:30:31;6.53;;;1.25;;
69152;SDS011;56261;51.580;4.578;2022-08-26T00:32:58;8.52;;;1.35;;
69152;SDS011;56261;51.580;4.578;2022-08-26T00:35:25;7.82;;;1.30;;
69152;SDS011;56261;51.580;4.578;2022-08-26T00:37:51;5.10;;;0.97;;
69152;SDS011;56261;51.580;4.578;2022-08-26T00:40:19;10.20;;;2.03;;
69152;SDS011;56261;51.580;4.578;2022-08-26T00:42:47;8.98;;;1.20;;
69152;SDS011;56261;51.580;4.578;2022-08-26T00:45:13;6.87;;;1.20;;
69152;SDS011;56261;51.580;4.578;2022-08-26T00:47:42;7.25;;;1.45;;
69152;SDS011;56261;51.580;4.578;2022-08-26T00:50:11;8.73;;;1.20;;
69152;SDS011;56261;51.580;4.578;2022-08-26T00:52:40;9.23;;;1.45;;
69152;SDS011;56261;51.580;4.578;2022-08-26T00:57:52;7.80;;;1.73;;
69152;SDS011;56261;51.580;4.578;2022-08-26T01:00:19;7.32;;;1.45;;
69152;SDS011;56261;51.580;4.578;2022-08-26T01:02:48;7.85;;;1.80;;
69152;SDS011;56261;51.580;4.578;2022-08-26T01:05:16;7.43;;;1.63;;
69152;SDS011;56261;51.580;4.578;2022-08-26T01:07:42;9.18;;;1.75;;
69152;SDS011;56261;51.580;4.578;2022-08-26T01:10:10;8.10;;;1.30;;
69152;SDS011;56261;51.580;4.578;2022-08-26T01:12:41;8.10;;;1.30;;
69152;SDS011;56261;51.580;4.578;2022-08-26T01:15:12;8.98;;;1.80;;
69152;SDS011;56261;51.580;4.578;2022-08-26T01:17:42;8.93;;;1.50;;
69152;SDS011;56261;51.580;4.578;2022-08-26T01:20:25;6.45;;;1.55;;
69152;SDS011;56261;51.580;4.578;2022-08-26T01:23:10;7.50;;;1.57;;
69152;SDS011;56261;51.580;4.578;2022-08-26T01:25:38;7.03;;;1.20;;
69152;SDS011;56261;51.580;4.578;2022-08-26T01:28:14;11.23;;;1.50;;
69152;SDS011;56261;51.580;4.578;2022-08-26T01:30:45;11.20;;;1.65;;
69152;SDS011;56261;51.580;4.578;2022-08-26T01:33:14;10.95;;;1.45;;
69152;SDS011;56261;51.580;4.578;2022-08-26T01:35:41;10.27;;;1.50;;
69152;SDS011;56261;51.580;4.578;2022-08-26T01:38:08;9.85;;;1.58;;
69152;SDS011;56261;51.580;4.578;2022-08-26T01:40:36;8.38;;;1.55;;
69152;SDS011;56261;51.580;4.578;2022-08-26T01:43:05;7.55;;;1.08;;
69152;SDS011;56261;51.580;4.578;2022-08-26T01:45:32;7.00;;;1.40;;
69152;SDS011;56261;51.580;4.578;2022-08-26T01:48:00;7.40;;;1.27;;
69152;SDS011;56261;51.580;4.578;2022-08-26T01:50:32;6.43;;;1.38;;
69152;SDS011;56261;51.580;4.578;2022-08-26T01:53:00;7.90;;;1.52;;
69152;SDS011;56261;51.580;4.578;2022-08-26T01:55:29;8.88;;;1.33;;
69152;SDS011;56261;51.580;4.578;2022-08-26T01:57:56;9.27;;;1.50;;
69152;SDS011;56261;51.580;4.578;2022-08-26T02:00:22;8.07;;;1.47;;
69152;SDS011;56261;51.580;4.578;2022-08-26T02:02:49;6.45;;;1.38;;
69152;SDS011;56261;51.580;4.578;2022-08-26T02:05:38;6.10;;;1.30;;
69152;SDS011;56261;51.580;4.578;2022-08-26T02:08:04;5.73;;;1.30;;
69152;SDS011;56261;51.580;4.578;2022-08-26T02:10:31;9.80;;;1.50;;
69152;SDS011;56261;51.580;4.578;2022-08-26T02:12:56;9.13;;;1.50;;
69152;SDS011;56261;51.580;4.578;2022-08-26T02:15:22;7.63;;;1.50;;
69152;SDS011;56261;51.580;4.578;2022-08-26T02:17:47;8.40;;;1.60;;
69152;SDS011;56261;51.580;4.578;2022-08-26T02:20:15;8.10;;;1.73;;
69152;SDS011;56261;51.580;4.578;2022-08-26T02:22:42;7.88;;;1.60;;
69152;SDS011;56261;51.580;4.578;2022-08-26T02:25:23;8.53;;;2.00;;
69152;SDS011;56261;51.580;4.578;2022-08-26T02:27:54;9.25;;;1.70;;
69152;SDS011;56261;51.580;4.578;2022-08-26T02:30:27;7.95;;;2.20;;
69152;SDS011;56261;51.580;4.578;2022-08-26T02:32:59;9.13;;;1.85;;
69152;SDS011;56261;51.580;4.578;2022-08-26T02:35:27;7.88;;;1.60;;
69152;SDS011;56261;51.580;4.578;2022-08-26T02:37:54;7.07;;;1.87;;
69152;SDS011;56261;51.580;4.578;2022-08-26T02:40:22;7.10;;;1.50;;
69152;SDS011;56261;51.580;4.578;2022-08-26T02:42:51;6.72;;;1.50;;
69152;SDS011;56261;51.580;4.578;2022-08-26T02:45:16;9.55;;;1.40;;
69152;SDS011;56261;51.580;4.578;2022-08-26T02:47:42;9.50;;;1.70;;
69152;SDS011;56261;51.580;4.578;2022-08-26T02:50:09;9.45;;;1.83;;
69152;SDS011;56261;51.580;4.578;2022-08-26T02:52:34;10.13;;;2.20;;
69152;SDS011;56261;51.580;4.578;2022-08-26T02:55:00;9.77;;;1.90;;
69152;SDS011;56261;51.580;4.578;2022-08-26T02:57:25;8.27;;;1.73;;
69152;SDS011;56261;51.580;4.578;2022-08-26T02:59:51;9.73;;;2.00;;
69152;SDS011;56261;51.580;4.578;2022-08-26T03:02:16;9.50;;;1.70;;
69152;SDS011;56261;51.580;4.578;2022-08-26T03:04:42;8.43;;;1.70;;
69152;SDS011;56261;51.580;4.578;2022-08-26T03:07:07;8.30;;;1.50;;
69152;SDS011;56261;51.580;4.578;2022-08-26T03:09:33;8.07;;;1.70;;
69152;SDS011;56261;51.580;4.578;2022-08-26T03:11:59;8.30;;;1.30;;
69152;SDS011;56261;51.580;4.578;2022-08-26T03:14:25;9.05;;;1.50;;
69152;SDS011;56261;51.580;4.578;2022-08-26T03:16:51;7.97;;;1.85;;
69152;SDS011;56261;51.580;4.578;2022-08-26T03:19:19;8.83;;;1.33;;
69152;SDS011;56261;51.580;4.578;2022-08-26T03:21:46;9.90;;;1.67;;
69152;SDS011;56261;51.580;4.578;2022-08-26T03:24:11;8.70;;;1.60;;
69152;SDS011;56261;51.580;4.578;2022-08-26T03:26:37;9.07;;;2.13;;
69152;SDS011;56261;51.580;4.578;2022-08-26T03:29:03;8.88;;;1.95;;
69152;SDS011;56261;51.580;4.578;2022-08-26T03:31:47;7.80;;;1.73;;
69152;SDS011;56261;51.580;4.578;2022-08-26T03:34:14;11.07;;;2.38;;
69152;SDS011;56261;51.580;4.578;2022-08-26T03:36:39;6.95;;;1.88;;
69152;SDS011;56261;51.580;4.578;2022-08-26T03:39:05;8.47;;;2.20;;
69152;SDS011;56261;51.580;4.578;2022-08-26T03:41:32;8.83;;;2.00;;
69152;SDS011;56261;51.580;4.578;2022-08-26T03:43:58;8.20;;;1.90;;
69152;SDS011;56261;51.580;4.578;2022-08-26T03:46:23;9.13;;;1.80;;
69152;SDS011;56261;51.580;4.578;2022-08-26T03:48:49;11.10;;;2.00;;
69152;SDS011;56261;51.580;4.578;2022-08-26T03:51:16;11.33;;;2.03;;
69152;SDS011;56261;51.580;4.578;2022-08-26T03:53:42;9.75;;;2.00;;
69152;SDS011;56261;51.580;4.578;2022-08-26T03:56:09;7.65;;;2.00;;
69152;SDS011;56261;51.580;4.578;2022-08-26T03:58:35;8.80;;;1.77;;
69152;SDS011;56261;51.580;4.578;2022-08-26T04:01:01;10.85;;;1.83;;
69152;SDS011;56261;51.580;4.578;2022-08-26T04:03:27;7.83;;;1.87;;
69152;SDS011;56261;51.580;4.578;2022-08-26T04:06:11;6.47;;;1.70;;
69152;SDS011;56261;51.580;4.578;2022-08-26T04:08:37;7.90;;;2.13;;
69152;SDS011;56261;51.580;4.578;2022-08-26T04:11:02;5.83;;;1.53;;
69152;SDS011;56261;51.580;4.578;2022-08-26T04:13:28;5.53;;;1.60;;
69152;SDS011;56261;51.580;4.578;2022-08-26T04:15:54;5.63;;;1.90;;
69152;SDS011;56261;51.580;4.578;2022-08-26T04:18:20;9.40;;;1.60;;
69152;SDS011;56261;51.580;4.578;2022-08-26T04:20:45;5.33;;;1.67;;
69152;SDS011;56261;51.580;4.578;2022-08-26T04:23:11;7.63;;;1.63;;
69152;SDS011;56261;51.580;4.578;2022-08-26T04:25:37;8.00;;;1.63;;
69152;SDS011;56261;51.580;4.578;2022-08-26T04:28:03;6.20;;;1.70;;
69152;SDS011;56261;51.580;4.578;2022-08-26T04:30:29;7.10;;;2.08;;
69152;SDS011;56261;51.580;4.578;2022-08-26T04:32:55;8.37;;;2.03;;
69152;SDS011;56261;51.580;4.578;2022-08-26T04:35:20;7.00;;;2.03;;
69152;SDS011;56261;51.580;4.578;2022-08-26T04:37:46;8.83;;;2.23;;
69152;SDS011;56261;51.580;4.578;2022-08-26T04:40:12;7.68;;;2.15;;
69152;SDS011;56261;51.580;4.578;2022-08-26T04:42:38;7.43;;;2.27;;
69152;SDS011;56261;51.580;4.578;2022-08-26T04:45:04;7.37;;;1.90;;
69152;SDS011;56261;51.580;4.578;2022-08-26T04:47:30;6.90;;;1.98;;
69152;SDS011;56261;51.580;4.578;2022-08-26T04:49:55;7.70;;;2.00;;
69152;SDS011;56261;51.580;4.578;2022-08-26T04:52:21;7.80;;;1.90;;
69152;SDS011;56261;51.580;4.578;2022-08-26T04:54:47;9.30;;;1.90;;
69152;SDS011;56261;51.580;4.578;2022-08-26T04:57:13;12.07;;;2.07;;
69152;SDS011;56261;51.580;4.578;2022-08-26T04:59:39;7.47;;;1.73;;
69152;SDS011;56261;51.580;4.578;2022-08-26T05:02:04;7.13;;;2.00;;
69152;SDS011;56261;51.580;4.578;2022-08-26T05:04:31;9.52;;;2.17;;
69152;SDS011;56261;51.580;4.578;2022-08-26T05:06:56;8.80;;;1.87;;
69152;SDS011;56261;51.580;4.578;2022-08-26T05:09:22;8.20;;;1.90;;
69152;SDS011;56261;51.580;4.578;2022-08-26T05:11:47;9.13;;;1.98;;
69152;SDS011;56261;51.580;4.578;2022-08-26T05:14:13;8.80;;;1.80;;
69152;SDS011;56261;51.580;4.578;2022-08-26T05:16:39;6.28;;;1.60;;
69152;SDS011;56261;51.580;4.578;2022-08-26T05:19:04;4.93;;;1.43;;
69152;SDS011;56261;51.580;4.578;2022-08-26T05:21:31;6.15;;;1.40;;
69152;SDS011;56261;51.580;4.578;2022-08-26T05:23:56;9.60;;;2.00;;
69152;SDS011;56261;51.580;4.578;2022-08-26T05:26:23;7.43;;;1.80;;
69152;SDS011;56261;51.580;4.578;2022-08-26T05:28:50;10.60;;;2.33;;
69152;SDS011;56261;51.580;4.578;2022-08-26T05:31:18;9.80;;;2.97;;
69152;SDS011;56261;51.580;4.578;2022-08-26T05:33:45;8.25;;;2.88;;
69152;SDS011;56261;51.580;4.578;2022-08-26T05:36:13;9.20;;;3.00;;
69152;SDS011;56261;51.580;4.578;2022-08-26T05:38:40;8.57;;;2.50;;
69152;SDS011;56261;51.580;4.578;2022-08-26T05:41:23;8.93;;;2.40;;
69152;SDS011;56261;51.580;4.578;2022-08-26T05:43:52;6.88;;;2.00;;
69152;SDS011;56261;51.580;4.578;2022-08-26T05:46:19;9.30;;;2.60;;
69152;SDS011;56261;51.580;4.578;2022-08-26T05:48:45;6.95;;;1.90;;
69152;SDS011;56261;51.580;4.578;2022-08-26T05:51:11;10.40;;;1.70;;
69152;SDS011;56261;51.580;4.578;2022-08-26T05:53:38;7.40;;;1.42;;
69152;SDS011;56261;51.580;4.578;2022-08-26T05:56:05;7.22;;;1.60;;
69152;SDS011;56261;51.580;4.578;2022-08-26T05:58:33;7.33;;;1.20;;
69152;SDS011;56261;51.580;4.578;2022-08-26T06:03:30;9.73;;;1.85;;
69152;SDS011;56261;51.580;4.578;2022-08-26T06:05:57;6.45;;;1.30;;
69152;SDS011;56261;51.580;4.578;2022-08-26T06:08:22;8.43;;;1.70;;
69152;SDS011;56261;51.580;4.578;2022-08-26T06:10:50;9.80;;;1.67;;
69152;SDS011;56261;51.580;4.578;2022-08-26T06:13:21;9.13;;;1.40;;
69152;SDS011;56261;51.580;4.578;2022-08-26T06:15:51;9.35;;;1.45;;
69152;SDS011;56261;51.580;4.578;2022-08-26T06:18:18;11.50;;;1.67;;
69152;SDS011;56261;51.580;4.578;2022-08-26T06:20:49;10.02;;;1.73;;
69152;SDS011;56261;51.580;4.578;2022-08-26T06:23:16;9.65;;;1.50;;
69152;SDS011;56261;51.580;4.578;2022-08-26T06:26:01;9.90;;;1.70;;
69152;SDS011;56261;51.580;4.578;2022-08-26T06:28:29;8.73;;;1.33;;
69152;SDS011;56261;51.580;4.578;2022-08-26T06:30:55;8.98;;;1.35;;
69152;SDS011;56261;51.580;4.578;2022-08-26T06:33:21;7.03;;;1.53;;
69152;SDS011;56261;51.580;4.578;2022-08-26T06:35:48;10.60;;;1.30;;
69152;SDS011;56261;51.580;4.578;2022-08-26T06:38:14;9.90;;;1.60;;
69152;SDS011;56261;51.580;4.578;2022-08-26T06:40:43;12.53;;;1.77;;
69152;SDS011;56261;51.580;4.578;2022-08-26T06:43:12;6.00;;;1.40;;
69152;SDS011;56261;51.580;4.578;2022-08-26T06:45:39;9.52;;;1.50;;
69152;SDS011;56261;51.580;4.578;2022-08-26T06:48:05;9.27;;;1.40;;
69152;SDS011;56261;51.580;4.578;2022-08-26T06:50:31;8.73;;;1.45;;
69152;SDS011;56261;51.580;4.578;2022-08-26T06:52:58;12.00;;;1.42;;
69152;SDS011;56261;51.580;4.578;2022-08-26T06:55:24;5.90;;;1.30;;
69152;SDS011;56261;51.580;4.578;2022-08-26T06:57:49;9.70;;;1.38;;
69152;SDS011;56261;51.580;4.578;2022-08-26T07:00:15;8.30;;;1.37;;
69152;SDS011;56261;51.580;4.578;2022-08-26T07:02:42;7.03;;;1.10;;
69152;SDS011;56261;51.580;4.578;2022-08-26T07:05:08;7.03;;;1.07;;
69152;SDS011;56261;51.580;4.578;2022-08-26T07:07:33;7.85;;;1.30;;
69152;SDS011;56261;51.580;4.578;2022-08-26T07:09:59;7.17;;;0.97;;
69152;SDS011;56261;51.580;4.578;2022-08-26T07:12:24;8.90;;;1.60;;
69152;SDS011;56261;51.580;4.578;2022-08-26T07:14:50;6.07;;;0.95;;
69152;SDS011;56261;51.580;4.578;2022-08-26T07:17:16;7.38;;;1.40;;
69152;SDS011;56261;51.580;4.578;2022-08-26T07:19:43;7.82;;;1.23;;
69152;SDS011;56261;51.580;4.578;2022-08-26T07:22:09;6.50;;;1.10;;
69152;SDS011;56261;51.580;4.578;2022-08-26T07:24:35;7.97;;;1.30;;
69152;SDS011;56261;51.580;4.578;2022-08-26T07:27:03;5.53;;;1.27;;
69152;SDS011;56261;51.580;4.578;2022-08-26T07:29:32;7.88;;;1.20;;
69152;SDS011;56261;51.580;4.578;2022-08-26T07:31:58;6.60;;;1.20;;
69152;SDS011;56261;51.580;4.578;2022-08-26T07:34:25;7.30;;;1.17;;
69152;SDS011;56261;51.580;4.578;2022-08-26T07:36:51;4.95;;;1.00;;
69152;SDS011;56261;51.580;4.578;2022-08-26T07:39:17;5.83;;;1.00;;
69152;SDS011;56261;51.580;4.578;2022-08-26T07:41:43;8.88;;;1.08;;
69152;SDS011;56261;51.580;4.578;2022-08-26T07:44:11;5.97;;;1.02;;
69152;SDS011;56261;51.580;4.578;2022-08-26T07:46:39;8.48;;;1.45;;
69152;SDS011;56261;51.580;4.578;2022-08-26T07:49:05;4.90;;;1.10;;
69152;SDS011;56261;51.580;4.578;2022-08-26T07:51:30;5.73;;;1.20;;
69152;SDS011;56261;51.580;4.578;2022-08-26T07:53:56;7.80;;;1.15;;
69152;SDS011;56261;51.580;4.578;2022-08-26T07:56:22;4.77;;;1.00;;
69152;SDS011;56261;51.580;4.578;2022-08-26T07:58:49;7.53;;;0.90;;
69152;SDS011;56261;51.580;4.578;2022-08-26T08:01:15;6.28;;;1.02;;
69152;SDS011;56261;51.580;4.578;2022-08-26T08:03:41;6.77;;;1.00;;
69152;SDS011;56261;51.580;4.578;2022-08-26T08:06:06;6.85;;;1.10;;
69152;SDS011;56261;51.580;4.578;2022-08-26T08:08:32;5.60;;;1.30;;
69152;SDS011;56261;51.580;4.578;2022-08-26T08:10:59;7.28;;;1.33;;
69152;SDS011;56261;51.580;4.578;2022-08-26T08:13:25;5.82;;;1.10;;
69152;SDS011;56261;51.580;4.578;2022-08-26T08:15:50;8.23;;;1.23;;
69152;SDS011;56261;51.580;4.578;2022-08-26T08:18:16;7.40;;;1.00;;
69152;SDS011;56261;51.580;4.578;2022-08-26T08:20:42;4.90;;;1.00;;
69152;SDS011;56261;51.580;4.578;2022-08-26T08:23:08;6.47;;;1.10;;
69152;SDS011;56261;51.580;4.578;2022-08-26T08:25:33;7.43;;;1.03;;
69152;SDS011;56261;51.580;4.578;2022-08-26T08:27:59;8.77;;;1.00;;
69152;SDS011;56261;51.580;4.578;2022-08-26T08:30:25;8.20;;;1.00;;
69152;SDS011;56261;51.580;4.578;2022-08-26T08:32:52;7.57;;;1.10;;
69152;SDS011;56261;51.580;4.578;2022-08-26T08:35:18;5.23;;;1.13;;
69152;SDS011;56261;51.580;4.578;2022-08-26T08:37:50;5.82;;;1.00;;
69152;SDS011;56261;51.580;4.578;2022-08-26T08:40:18;6.97;;;1.00;;
69152;SDS011;56261;51.580;4.578;2022-08-26T08:42:46;7.72;;;1.05;;
69152;SDS011;56261;51.580;4.578;2022-08-26T08:45:46;6.03;;;1.00;;
69152;SDS011;56261;51.580;4.578;2022-08-26T08:48:19;5.93;;;1.03;;
69152;SDS011;56261;51.580;4.578;2022-08-26T08:50:46;8.15;;;1.00;;
69152;SDS011;56261;51.580;4.578;2022-08-26T09:10:26;7.30;;;1.10;;
69152;SDS011;56261;51.580;4.578;2022-08-26T09:12:57;5.35;;;0.88;;
69152;SDS011;56261;51.580;4.578;2022-08-26T09:15:26;4.73;;;0.90;;
69152;SDS011;56261;51.580;4.578;2022-08-26T09:18:08;5.97;;;1.00;;
69152;SDS011;56261;51.580;4.578;2022-08-26T09:23:16;6.25;;;0.90;;
69152;SDS011;56261;51.580;4.578;2022-08-26T09:25:46;4.93;;;0.80;;
69152;SDS011;56261;51.580;4.578;2022-08-26T09:28:18;6.22;;;1.00;;
69152;SDS011;56261;51.580;4.578;2022-08-26T09:30:46;4.95;;;0.85;;
69152;SDS011;56261;51.580;4.578;2022-08-26T09:33:35;4.35;;;0.90;;
69152;SDS011;56261;51.580;4.578;2022-08-26T09:37:01;4.37;;;1.00;;
69152;SDS011;56261;51.580;4.578;2022-08-26T09:39:26;5.68;;;1.25;;
69152;SDS011;56261;51.580;4.578;2022-08-26T09:42:02;5.68;;;1.55;;
69152;SDS011;56261;51.580;4.578;2022-08-26T09:44:30;6.03;;;1.00;;
69152;SDS011;56261;51.580;4.578;2022-08-26T09:46:58;5.35;;;1.00;;
69152;SDS011;56261;51.580;4.578;2022-08-26T09:52:05;5.75;;;1.25;;
69152;SDS011;56261;51.580;4.578;2022-08-26T09:54:31;5.15;;;1.20;;
69152;SDS011;56261;51.580;4.578;2022-08-26T09:59:43;7.45;;;0.90;;
69152;SDS011;56261;51.580;4.578;2022-08-26T10:02:15;4.97;;;1.00;;
69152;SDS011;56261;51.580;4.578;2022-08-26T10:04:50;7.07;;;1.10;;
69152;SDS011;56261;51.580;4.578;2022-08-26T10:10:10;5.60;;;0.80;;
69152;SDS011;56261;51.580;4.578;2022-08-26T10:13:00;5.38;;;0.77;;
69152;SDS011;56261;51.580;4.578;2022-08-26T10:15:44;6.30;;;1.02;;
69152;SDS011;56261;51.580;4.578;2022-08-26T10:18:28;5.60;;;0.93;;
69152;SDS011;56261;51.580;4.578;2022-08-26T10:21:03;6.90;;;0.90;;
69152;SDS011;56261;51.580;4.578;2022-08-26T10:23:36;6.35;;;0.90;;
69152;SDS011;56261;51.580;4.578;2022-08-26T10:26:16;4.93;;;1.02;;
69152;SDS011;56261;51.580;4.578;2022-08-26T10:34:13;5.03;;;1.00;;
69152;SDS011;56261;51.580;4.578;2022-08-26T10:36:41;6.15;;;0.95;;
69152;SDS011;56261;51.580;4.578;2022-08-26T10:41:49;3.47;;;0.80;;
69152;SDS011;56261;51.580;4.578;2022-08-26T10:44:20;6.17;;;0.93;;
69152;SDS011;56261;51.580;4.578;2022-08-26T10:46:56;5.15;;;0.90;;
69152;SDS011;56261;51.580;4.578;2022-08-26T10:49:27;6.63;;;1.95;;
69152;SDS011;56261;51.580;4.578;2022-08-26T11:05:15;6.95;;;1.10;;
69152;SDS011;56261;51.580;4.578;2022-08-26T11:07:44;5.35;;;1.10;;
69152;SDS011;56261;51.580;4.578;2022-08-26T11:20:29;6.87;;;1.37;;
69152;SDS011;56261;51.580;4.578;2022-08-26T11:31:03;6.78;;;1.00;;
69152;SDS011;56261;51.580;4.578;2022-08-26T11:33:45;7.27;;;1.43;;
69152;SDS011;56261;51.580;4.578;2022-08-26T11:39:23;8.90;;;1.30;;
69152;SDS011;56261;51.580;4.578;2022-08-26T11:42:11;11.20;;;1.50;;
69152;SDS011;56261;51.580;4.578;2022-08-26T11:44:44;8.45;;;1.50;;
69152;SDS011;56261;51.580;4.578;2022-08-26T11:47:11;9.20;;;1.53;;
69152;SDS011;56261;51.580;4.578;2022-08-26T11:49:38;7.68;;;1.80;;
69152;SDS011;56261;51.580;4.578;2022-08-26T11:52:12;8.37;;;1.40;;
69152;SDS011;56261;51.580;4.578;2022-08-26T11:54:58;7.47;;;1.30;;
69152;SDS011;56261;51.580;4.578;2022-08-26T11:57:25;6.10;;;1.38;;
69152;SDS011;56261;51.580;4.578;2022-08-26T11:59:51;9.93;;;1.67;;
69152;SDS011;56261;51.580;4.578;2022-08-26T12:02:17;8.37;;;1.33;;
69152;SDS011;56261;51.580;4.578;2022-08-26T12:04:44;9.32;;;2.05;;
69152;SDS011;56261;51.580;4.578;2022-08-26T12:07:13;6.25;;;1.50;;
69152;SDS011;56261;51.580;4.578;2022-08-26T12:09:49;9.73;;;1.88;;
69152;SDS011;56261;51.580;4.578;2022-08-26T12:12:24;8.00;;;1.33;;
69152;SDS011;56261;51.580;4.578;2022-08-26T12:15:07;5.77;;;1.50;;
69152;SDS011;56261;51.580;4.578;2022-08-26T12:17:41;8.48;;;1.90;;
69152;SDS011;56261;51.580;4.578;2022-08-26T12:20:28;7.15;;;1.50;;
69152;SDS011;56261;51.580;4.578;2022-08-26T12:28:31;8.00;;;1.60;;
69152;SDS011;56261;51.580;4.578;2022-08-26T12:31:01;11.85;;;1.70;;
69152;SDS011;56261;51.580;4.578;2022-08-26T12:33:29;7.63;;;1.77;;
69152;SDS011;56261;51.580;4.578;2022-08-26T12:35:56;7.72;;;1.45;;
69152;SDS011;56261;51.580;4.578;2022-08-26T12:38:23;6.80;;;1.60;;
69152;SDS011;56261;51.580;4.578;2022-08-26T12:40:50;6.70;;;1.47;;
69152;SDS011;56261;51.580;4.578;2022-08-26T12:46:03;7.28;;;1.60;;
69152;SDS011;56261;51.580;4.578;2022-08-26T12:48:33;6.97;;;1.30;;
69152;SDS011;56261;51.580;4.578;2022-08-26T12:51:02;9.07;;;1.60;;
69152;SDS011;56261;51.580;4.578;2022-08-26T12:53:32;7.47;;;1.30;;
69152;SDS011;56261;51.580;4.578;2022-08-26T12:55:59;7.60;;;1.60;;
69152;SDS011;56261;51.580;4.578;2022-08-26T12:58:32;8.85;;;1.30;;
69152;SDS011;56261;51.580;4.578;2022-08-26T13:12:18;7.68;;;1.58;;
69152;SDS011;56261;51.580;4.578;2022-08-26T13:14:19;7.50;;;1.45;;
69152;SDS011;56261;51.580;4.578;2022-08-26T13:16:47;8.07;;;1.60;;
69152;SDS011;56261;51.580;4.578;2022-08-26T13:19:17;10.55;;;1.58;;
69152;SDS011;56261;51.580;4.578;2022-08-26T13:21:45;10.60;;;1.63;;
69152;SDS011;56261;51.580;4.578;2022-08-26T13:24:13;9.10;;;1.55;;
69152;SDS011;56261;51.580;4.578;2022-08-26T13:26:42;8.30;;;1.67;;
69152;SDS011;56261;51.580;4.578;2022-08-26T13:29:09;7.43;;;1.50;;
69152;SDS011;56261;51.580;4.578;2022-08-26T13:42:06;9.37;;;1.50;;
69152;SDS011;56261;51.580;4.578;2022-08-26T13:44:33;9.98;;;1.42;;
69152;SDS011;56261;51.580;4.578;2022-08-26T13:46:58;7.70;;;1.75;;
69152;SDS011;56261;51.580;4.578;2022-08-26T13:49:24;8.37;;;1.63;;
69152;SDS011;56261;51.580;4.578;2022-08-26T13:51:49;6.80;;;1.50;;
69152;SDS011;56261;51.580;4.578;2022-08-26T13:54:14;9.53;;;1.53;;
69152;SDS011;56261;51.580;4.578;2022-08-26T13:56:40;7.97;;;1.40;;
69152;SDS011;56261;51.580;4.578;2022-08-26T13:59:05;6.53;;;1.65;;
69152;SDS011;56261;51.580;4.578;2022-08-26T14:01:31;7.60;;;1.50;;
69152;SDS011;56261;51.580;4.578;2022-08-26T14:03:56;8.48;;;1.63;;
69152;SDS011;56261;51.580;4.578;2022-08-26T14:06:22;9.37;;;1.53;;
69152;SDS011;56261;51.580;4.578;2022-08-26T14:08:48;10.05;;;1.67;;
69152;SDS011;56261;51.580;4.578;2022-08-26T14:11:14;7.27;;;1.50;;
69152;SDS011;56261;51.580;4.578;2022-08-26T14:13:39;9.60;;;1.60;;
69152;SDS011;56261;51.580;4.578;2022-08-26T14:16:13;9.05;;;1.70;;
69152;SDS011;56261;51.580;4.578;2022-08-26T14:18:46;5.93;;;1.60;;
69152;SDS011;56261;51.580;4.578;2022-08-26T14:21:14;7.45;;;1.42;;
69152;SDS011;56261;51.580;4.578;2022-08-26T14:23:39;9.00;;;1.53;;
69152;SDS011;56261;51.580;4.578;2022-08-26T14:26:05;7.13;;;1.33;;
69152;SDS011;56261;51.580;4.578;2022-08-26T14:28:32;8.57;;;1.50;;
69152;SDS011;56261;51.580;4.578;2022-08-26T14:30:58;7.22;;;1.80;;
69152;SDS011;56261;51.580;4.578;2022-08-26T14:33:24;6.73;;;1.53;;
69152;SDS011;56261;51.580;4.578;2022-08-26T14:35:52;13.85;;;1.98;;
69152;SDS011;56261;51.580;4.578;2022-08-26T14:38:38;8.23;;;1.50;;
69152;SDS011;56261;51.580;4.578;2022-08-26T14:41:03;9.63;;;1.60;;
69152;SDS011;56261;51.580;4.578;2022-08-26T14:43:28;9.07;;;1.50;;
69152;SDS011;56261;51.580;4.578;2022-08-26T14:45:55;10.10;;;1.45;;
69152;SDS011;56261;51.580;4.578;2022-08-26T14:48:20;6.97;;;1.20;;
69152;SDS011;56261;51.580;4.578;2022-08-26T14:50:45;5.57;;;1.37;;
69152;SDS011;56261;51.580;4.578;2022-08-26T14:53:11;6.38;;;1.50;;
69152;SDS011;56261;51.580;4.578;2022-08-26T14:55:55;4.93;;;1.30;;
69152;SDS011;56261;51.580;4.578;2022-08-26T14:58:20;5.30;;;1.30;;
69152;SDS011;56261;51.580;4.578;2022-08-26T15:00:45;11.00;;;1.53;;
69152;SDS011;56261;51.580;4.578;2022-08-26T15:03:11;28.57;;;2.77;;
69152;SDS011;56261;51.580;4.578;2022-08-26T15:05:37;13.93;;;1.90;;
69152;SDS011;56261;51.580;4.578;2022-08-26T15:08:09;8.53;;;1.50;;
69152;SDS011;56261;51.580;4.578;2022-08-26T15:10:34;5.95;;;1.52;;
69152;SDS011;56261;51.580;4.578;2022-08-26T15:13:00;6.87;;;1.20;;
69152;SDS011;56261;51.580;4.578;2022-08-26T15:15:26;7.63;;;1.30;;
69152;SDS011;56261;51.580;4.578;2022-08-26T15:17:53;5.23;;;1.00;;
69152;SDS011;56261;51.580;4.578;2022-08-26T15:20:18;10.20;;;1.40;;
69152;SDS011;56261;51.580;4.578;2022-08-26T15:22:44;8.07;;;1.20;;
69152;SDS011;56261;51.580;4.578;2022-08-26T15:25:09;8.33;;;1.60;;
69152;SDS011;56261;51.580;4.578;2022-08-26T15:27:35;7.75;;;1.58;;
69152;SDS011;56261;51.580;4.578;2022-08-26T15:30:02;6.27;;;1.27;;
69152;SDS011;56261;51.580;4.578;2022-08-26T15:32:28;7.68;;;1.42;;
69152;SDS011;56261;51.580;4.578;2022-08-26T15:34:54;6.45;;;1.33;;
69152;SDS011;56261;51.580;4.578;2022-08-26T15:37:20;10.10;;;1.67;;
69152;SDS011;56261;51.580;4.578;2022-08-26T15:39:46;5.73;;;1.50;;
69152;SDS011;56261;51.580;4.578;2022-08-26T15:42:11;6.22;;;1.33;;
69152;SDS011;56261;51.580;4.578;2022-08-26T15:44:41;8.30;;;1.60;;
69152;SDS011;56261;51.580;4.578;2022-08-26T15:47:06;6.63;;;1.17;;
69152;SDS011;56261;51.580;4.578;2022-08-26T15:49:32;8.33;;;1.30;;
69152;SDS011;56261;51.580;4.578;2022-08-26T15:51:57;4.70;;;1.17;;
69152;SDS011;56261;51.580;4.578;2022-08-26T15:54:23;5.40;;;1.30;;
69152;SDS011;56261;51.580;4.578;2022-08-26T15:56:48;6.93;;;1.17;;
69152;SDS011;56261;51.580;4.578;2022-08-26T15:59:16;7.37;;;1.30;;
69152;SDS011;56261;51.580;4.578;2022-08-26T16:01:42;7.13;;;1.63;;
69152;SDS011;56261;51.580;4.578;2022-08-26T16:04:08;5.45;;;1.35;;
69152;SDS011;56261;51.580;4.578;2022-08-26T16:06:36;6.28;;;1.25;;
69152;SDS011;56261;51.580;4.578;2022-08-26T16:09:04;6.70;;;1.42;;
69152;SDS011;56261;51.580;4.578;2022-08-26T16:11:31;5.80;;;1.20;;
69152;SDS011;56261;51.580;4.578;2022-08-26T16:13:58;6.03;;;1.45;;
69152;SDS011;56261;51.580;4.578;2022-08-26T16:16:23;5.72;;;1.45;;
69152;SDS011;56261;51.580;4.578;2022-08-26T16:18:49;7.77;;;1.70;;
69152;SDS011;56261;51.580;4.578;2022-08-26T16:21:19;5.83;;;1.50;;
69152;SDS011;56261;51.580;4.578;2022-08-26T16:23:46;6.15;;;1.45;;
69152;SDS011;56261;51.580;4.578;2022-08-26T16:26:18;5.40;;;1.60;;
69152;SDS011;56261;51.580;4.578;2022-08-26T16:28:45;6.57;;;1.50;;
69152;SDS011;56261;51.580;4.578;2022-08-26T16:31:11;6.55;;;1.30;;
69152;SDS011;56261;51.580;4.578;2022-08-26T16:33:37;5.78;;;1.75;;
69152;SDS011;56261;51.580;4.578;2022-08-26T16:36:03;8.47;;;1.40;;
69152;SDS011;56261;51.580;4.578;2022-08-26T16:38:29;7.90;;;1.70;;